Time;durP1;ratioP1;P1;durP2;ratioP2;P2;SDS_P1;SDS_P2;PMS_P1;PMS_P2;Temp;Humidity;BMP_temperature;BMP_pressure;BME280_temperature;BME280_humidity;BME280_pressure;Samples;Min_cycle;Max_cycle;Signal;HPM_P1;HPM_P2
2022/03/16 00:01:47;;;;;;;41.00;17.85;;;;;;;7.68;100.00;96837.41;5088117;28;20082;-74
2022/03/16 00:04:13;;;;;;;43.40;17.88;;;;;;;7.69;100.00;96838.22;5085382;28;20048;-74
2022/03/16 00:06:40;;;;;;;40.00;17.77;;;;;;;7.69;100.00;96833.59;5086057;28;20044;-75
2022/03/16 00:09:08;;;;;;;41.63;18.33;;;;;;;7.68;100.00;96848.25;5085607;28;20048;-75
2022/03/16 00:11:34;;;;;;;42.28;18.13;;;;;;;7.69;100.00;96846.34;5086594;28;20048;-74
2022/03/16 00:14:01;;;;;;;34.97;17.60;;;;;;;7.72;100.00;96838.41;5085152;28;20040;-75
2022/03/16 00:16:27;;;;;;;46.58;20.65;;;;;;;7.75;100.00;96846.00;5093355;28;20074;-75
2022/03/16 00:18:54;;;;;;;41.70;19.65;;;;;;;7.75;100.00;96837.84;5106913;28;20055;-75
2022/03/16 00:21:20;;;;;;;42.75;19.88;;;;;;;7.78;100.00;96842.72;5105715;28;20047;-75
2022/03/16 00:23:47;;;;;;;44.30;20.25;;;;;;;7.72;100.00;96843.03;5105789;28;20055;-75
2022/03/16 00:26:15;;;;;;;50.00;21.13;;;;;;;7.72;100.00;96843.84;5104667;28;20044;-75
2022/03/16 00:28:42;;;;;;;47.58;21.80;;;;;;;7.72;100.00;96849.25;5106572;28;20732;-76
2022/03/16 00:31:08;;;;;;;46.95;22.25;;;;;;;7.69;100.00;96852.56;5088775;28;20055;-75
2022/03/16 00:33:35;;;;;;;48.97;22.77;;;;;;;7.71;100.00;96846.84;5089596;28;20047;-75
2022/03/16 00:36:01;;;;;;;52.40;23.13;;;;;;;7.70;100.00;96851.47;5087570;28;20059;-74
2022/03/16 00:38:28;;;;;;;52.03;23.77;;;;;;;7.69;100.00;96849.03;5088888;28;20040;-75
2022/03/16 00:40:54;;;;;;;48.83;23.88;;;;;;;7.68;100.00;96839.31;5089502;28;20051;-75
2022/03/16 00:43:24;;;;;;;58.95;26.38;;;;;;;7.65;100.00;96850.72;5088514;28;20052;-75
2022/03/16 00:45:51;;;;;;;58.53;26.85;;;;;;;7.63;100.00;96851.00;5091995;28;20063;-77
2022/03/16 00:48:17;;;;;;;59.97;27.27;;;;;;;7.59;100.00;96839.91;5109193;28;20047;-75
2022/03/16 00:50:44;;;;;;;57.53;28.33;;;;;;;7.64;100.00;96851.81;5109838;28;20502;-76
2022/03/16 00:53:11;;;;;;;61.25;27.23;;;;;;;7.61;100.00;96847.75;5108265;28;20453;-76
2022/03/16 00:55:37;;;;;;;60.45;28.40;;;;;;;7.62;100.00;96854.78;5109962;28;20051;-75
2022/03/16 00:58:03;;;;;;;60.97;27.88;;;;;;;7.64;100.00;96846.38;5108301;28;20052;-75
2022/03/16 01:00:31;;;;;;;58.88;28.80;;;;;;;7.68;100.00;96842.00;5097637;28;20044;-76
2022/03/16 01:02:58;;;;;;;54.53;25.55;;;;;;;7.67;100.00;96849.31;5090566;28;20197;-76
2022/03/16 01:05:24;;;;;;;62.38;29.15;;;;;;;7.67;100.00;96840.38;5091122;28;20552;-76
2022/03/16 01:07:51;;;;;;;57.40;27.48;;;;;;;7.64;100.00;96832.84;5092289;28;20063;-76
2022/03/16 01:10:17;;;;;;;60.17;28.73;;;;;;;7.59;100.00;96842.63;5089982;28;20044;-76
2022/03/16 01:12:43;;;;;;;54.42;26.60;;;;;;;7.57;100.00;96839.41;5090538;28;20099;-75
2022/03/16 01:15:10;;;;;;;56.63;27.08;;;;;;;7.55;100.00;96838.06;5088551;28;20052;-76
2022/03/16 01:17:40;;;;;;;57.38;27.15;;;;;;;7.48;100.00;96837.59;5107630;28;20051;-75
2022/03/16 01:20:10;;;;;;;54.65;25.52;;;;;;;7.46;100.00;96840.56;5108592;28;20040;-75
2022/03/16 01:22:36;;;;;;;54.45;25.10;;;;;;;7.39;100.00;96834.69;5110297;28;20481;-75
2022/03/16 01:25:03;;;;;;;52.97;25.00;;;;;;;7.37;100.00;96841.50;5108631;28;20052;-76
2022/03/16 01:27:29;;;;;;;57.05;26.20;;;;;;;7.31;100.00;96838.03;5109344;28;20620;-75
2022/03/16 01:29:56;;;;;;;52.90;24.55;;;;;;;7.32;100.00;96839.66;5102084;28;20059;-78
2022/03/16 01:32:22;;;;;;;57.25;27.20;;;;;;;7.32;100.00;96845.06;5088295;28;20670;-75
2022/03/16 01:34:50;;;;;;;53.78;25.65;;;;;;;7.31;100.00;96844.25;5088546;28;20139;-76
2022/03/16 01:37:17;;;;;;;56.50;26.00;;;;;;;7.29;100.00;96842.91;5087149;28;20059;-76
2022/03/16 01:39:43;;;;;;;59.15;25.42;;;;;;;7.29;100.00;96840.22;5089025;28;20418;-76
2022/03/16 01:42:10;;;;;;;53.92;24.98;;;;;;;7.28;100.00;96844.00;5086697;28;20048;-76
2022/03/16 01:44:44;;;;;;;61.95;26.10;;;;;;;7.28;100.00;96849.44;5088274;28;20054;-75
2022/03/16 01:47:11;;;;;;;56.22;26.77;;;;;;;7.27;100.00;96848.63;5100701;28;20570;-76
2022/03/16 01:49:38;;;;;;;64.05;27.25;;;;;;;7.28;100.00;96850.25;5108832;28;20051;-75
2022/03/16 01:52:07;;;;;;;60.03;27.17;;;;;;;7.23;100.00;96852.19;5107210;28;20418;-77
2022/03/16 01:54:34;;;;;;;66.22;28.58;;;;;;;7.20;100.00;96848.13;5108064;28;20043;-75
2022/03/16 01:57:00;;;;;;;62.80;27.33;;;;;;;7.20;100.00;96853.53;5107732;28;20058;-76
2022/03/16 01:59:27;;;;;;;58.88;27.60;;;;;;;7.19;100.00;96848.41;5104440;28;20056;-75
2022/03/16 02:01:54;;;;;;;59.03;27.73;;;;;;;7.14;100.00;96848.47;5088130;28;20048;-75
2022/03/16 02:04:20;;;;;;;63.58;27.23;;;;;;;7.17;100.00;96847.91;5087622;28;20055;-76
2022/03/16 02:06:47;;;;;;;70.63;29.08;;;;;;;7.11;100.00;96854.47;5087929;28;20056;-76
2022/03/16 02:09:15;;;;;;;59.63;27.27;;;;;;;7.11;100.00;96854.47;5086737;28;20048;-76
2022/03/16 02:11:41;;;;;;;63.15;28.77;;;;;;;7.13;100.00;96852.28;5088121;28;20396;-75
2022/03/16 02:14:08;;;;;;;58.20;27.40;;;;;;;7.16;100.00;96851.72;5086797;28;20502;-75
2022/03/16 02:16:35;;;;;;;62.60;28.17;;;;;;;7.15;100.00;96850.06;5096249;28;20046;-75
2022/03/16 02:19:01;;;;;;;59.88;27.83;;;;;;;7.17;100.00;96847.91;5107865;28;20075;-75
2022/03/16 02:21:29;;;;;;;62.20;28.15;;;;;;;7.18;100.00;96854.94;5107620;28;20071;-76
2022/03/16 02:23:57;;;;;;;62.40;27.75;;;;;;;7.20;100.00;96860.88;5108123;28;20044;-75
2022/03/16 02:26:26;;;;;;;60.42;27.38;;;;;;;7.18;100.00;96860.34;5106711;28;20048;-75
2022/03/16 02:28:53;;;;;;;56.53;26.95;;;;;;;7.24;100.00;96856.50;5107608;28;20113;-75
2022/03/16 02:31:20;;;;;;;58.33;28.00;;;;;;;7.21;100.00;96865.22;5087985;28;20073;-75
2022/03/16 02:33:46;;;;;;;61.22;28.10;;;;;;;7.22;100.00;96869.53;5087244;28;20051;-74
2022/03/16 02:36:13;;;;;;;54.28;27.83;;;;;;;7.21;100.00;96868.72;5085922;28;20499;-75
2022/03/16 02:38:39;;;;;;;56.10;27.75;;;;;;;7.28;100.00;96873.81;5087279;28;20047;-75
2022/03/16 02:41:07;;;;;;;54.00;26.33;;;;;;;7.33;99.94;96873.78;5086767;28;20044;-75
2022/03/16 02:43:34;;;;;;;56.58;27.40;;;;;;;7.36;99.70;96875.94;5087277;28;20055;-74
2022/03/16 02:46:01;;;;;;;50.50;25.20;;;;;;;7.42;99.42;96876.69;5091207;28;20043;-75
2022/03/16 02:48:27;;;;;;;58.92;28.50;;;;;;;7.43;98.45;96883.72;5106851;28;20402;-75
2022/03/16 02:50:54;;;;;;;51.58;26.90;;;;;;;7.44;98.63;96883.41;5107725;28;20534;-75
2022/03/16 02:53:21;;;;;;;55.95;28.42;;;;;;;7.56;98.23;96889.25;5106761;28;20048;-75
2022/03/16 02:55:48;;;;;;;57.50;28.02;;;;;;;7.64;97.78;96885.13;5107141;28;20399;-76
2022/03/16 02:58:17;;;;;;;56.35;29.52;;;;;;;7.59;97.32;96899.53;5086748;28;20075;-75
2022/03/16 03:00:44;;;;;;;59.85;29.38;;;;;;;7.53;97.20;96899.88;5091594;28;20090;-76
2022/03/16 03:03:11;;;;;;;58.17;29.20;;;;;;;7.51;97.41;96894.72;5092857;28;20051;-75
2022/03/16 03:05:37;;;;;;;61.25;30.67;;;;;;;7.55;97.57;96903.91;5092454;28;20078;-76
2022/03/16 03:08:04;;;;;;;59.72;29.02;;;;;;;7.54;97.14;96899.59;5092242;28;20044;-75
2022/03/16 03:10:31;;;;;;;56.95;28.45;;;;;;;7.50;97.00;96909.38;5096946;28;20588;-76
2022/03/16 03:12:58;;;;;;;52.72;25.02;;;;;;;7.43;96.00;96903.50;5097762;28;20063;-75
2022/03/16 03:15:26;;;;;;;47.42;23.40;;;;;;;7.38;94.92;96914.38;5094741;28;20052;-75
2022/03/16 03:17:52;;;;;;;41.83;22.20;;;;;;;7.39;94.57;96913.28;5115682;28;20047;-76
2022/03/16 03:20:20;;;;;;;41.20;21.35;;;;;;;7.43;93.97;96917.03;5110771;28;20056;-76
2022/03/16 03:22:47;;;;;;;40.28;21.35;;;;;;;7.38;92.48;96917.06;5111716;28;20136;-75
2022/03/16 03:25:15;;;;;;;40.63;21.00;;;;;;;7.36;91.82;96926.56;5111654;28;20111;-75
2022/03/16 03:27:42;;;;;;;42.63;22.10;;;;;;;7.38;91.33;96924.41;5112693;28;20056;-75
2022/03/16 03:30:10;;;;;;;39.75;21.13;;;;;;;7.33;90.89;96922.53;5103656;28;20047;-75
2022/03/16 03:32:38;;;;;;;41.88;21.73;;;;;;;7.36;90.67;96927.41;5092986;28;20075;-75
2022/03/16 03:35:06;;;;;;;39.53;21.42;;;;;;;7.30;90.57;96933.94;5093426;28;20044;-76
2022/03/16 03:37:33;;;;;;;46.15;22.70;;;;;;;7.27;90.57;96934.50;5092629;28;20040;-75
2022/03/16 03:40:00;;;;;;;46.65;23.67;;;;;;;7.26;90.31;96932.91;5090823;28;20051;-75
2022/03/16 03:42:27;;;;;;;52.95;25.13;;;;;;;7.24;89.95;96937.78;5087548;28;20044;-75
2022/03/16 03:44:55;;;;;;;49.20;24.45;;;;;;;7.13;89.32;96937.03;5087683;28;20051;-75
2022/03/16 03:47:22;;;;;;;49.28;24.70;;;;;;;7.08;88.96;96937.06;5088013;28;20056;-75
2022/03/16 03:49:49;;;;;;;51.58;25.27;;;;;;;7.00;89.19;96943.09;5090209;28;20044;-75
2022/03/16 03:52:16;;;;;;;52.60;24.85;;;;;;;6.99;89.45;96946.88;5116178;28;20043;-74
2022/03/16 03:54:42;;;;;;;55.55;25.52;;;;;;;6.90;88.77;96946.66;5129793;28;20058;-75
2022/03/16 03:57:09;;;;;;;52.20;25.10;;;;;;;6.84;88.92;96942.38;5127718;28;20043;-74
2022/03/16 03:59:35;;;;;;;59.00;26.23;;;;;;;6.79;89.33;96950.53;5123748;28;20047;-75
2022/03/16 04:02:02;;;;;;;51.42;25.10;;;;;;;6.79;89.88;96947.81;5108479;28;20047;-78
2022/03/16 04:04:28;;;;;;;49.63;24.13;;;;;;;6.80;89.79;96947.53;5107622;28;20051;-75
2022/03/16 04:06:56;;;;;;;52.65;24.55;;;;;;;6.80;89.95;96962.97;5111467;28;20502;-74
2022/03/16 04:09:22;;;;;;;50.58;25.48;;;;;;;6.77;89.82;96956.19;5111796;28;20331;-74
2022/03/16 04:11:49;;;;;;;56.47;25.77;;;;;;;6.83;89.77;96956.97;5112977;28;20047;-75
2022/03/16 04:14:16;;;;;;;49.78;24.70;;;;;;;6.82;89.14;96966.19;5115919;27;20051;-75
2022/03/16 04:16:43;;;;;;;52.17;24.60;;;;;;;6.82;89.37;96970.78;5133067;27;20043;-75
2022/03/16 04:19:09;;;;;;;47.50;23.55;;;;;;;6.92;89.10;96966.13;5133776;27;20480;-76
2022/03/16 04:21:36;;;;;;;55.10;25.92;;;;;;;6.96;89.01;96969.91;5132871;27;20520;-75
2022/03/16 04:24:04;;;;;;;46.13;23.33;;;;;;;7.01;88.69;96969.88;5135302;27;20700;-77
2022/03/16 04:26:31;;;;;;;46.15;23.42;;;;;;;7.05;88.76;96976.38;5133091;27;20066;-75
2022/03/16 04:28:57;;;;;;;45.08;23.05;;;;;;;7.10;88.43;96988.22;5134738;27;20528;-75
2022/03/16 04:31:24;;;;;;;49.70;22.77;;;;;;;7.09;87.93;96987.44;5113209;27;20039;-76
2022/03/16 04:33:50;;;;;;;45.22;21.95;;;;;;;7.05;87.48;96992.59;5111959;28;20048;-75
2022/03/16 04:36:17;;;;;;;47.05;23.85;;;;;;;7.02;86.99;96992.34;5108851;28;20051;-75
2022/03/16 04:38:43;;;;;;;44.08;22.15;;;;;;;7.03;87.05;96994.78;5110513;28;20040;-75
2022/03/16 04:41:11;;;;;;;44.15;22.00;;;;;;;7.02;86.66;96993.16;5109068;28;20051;-75
2022/03/16 04:43:38;;;;;;;42.83;21.33;;;;;;;7.05;86.74;96991.81;5111020;28;20054;-75
2022/03/16 04:46:05;;;;;;;45.20;22.63;;;;;;;7.08;86.50;96993.94;5110464;28;20074;-75
2022/03/16 04:48:31;;;;;;;46.15;23.35;;;;;;;7.09;86.47;96989.31;5109897;28;20070;-76
2022/03/16 04:50:58;;;;;;;42.58;22.25;;;;;;;7.05;86.27;96998.03;5111215;28;20059;-75
2022/03/16 04:53:24;;;;;;;45.78;22.60;;;;;;;7.01;85.72;96996.16;5108619;28;20126;-75
2022/03/16 04:55:51;;;;;;;41.00;21.42;;;;;;;7.00;85.49;97000.75;5111027;28;20434;-74
2022/03/16 04:58:18;;;;;;;47.13;22.50;;;;;;;7.02;85.41;96993.16;5109055;28;20438;-75
2022/03/16 05:00:45;;;;;;;44.42;21.60;;;;;;;7.04;85.26;97001.00;5096340;28;20139;-75
2022/03/16 05:03:11;;;;;;;43.60;21.88;;;;;;;7.05;85.46;96998.03;5092223;28;20052;-75
2022/03/16 05:05:39;;;;;;;47.08;22.73;;;;;;;7.09;85.20;97003.66;5093055;28;20055;-76
2022/03/16 05:08:06;;;;;;;47.10;22.90;;;;;;;7.13;85.17;96998.50;5090990;28;20051;-75
2022/03/16 05:10:32;;;;;;;44.70;22.20;;;;;;;7.12;85.48;97000.41;5092198;28;20051;-75
2022/03/16 05:12:59;;;;;;;44.55;21.75;;;;;;;7.09;85.21;97008.28;5091202;28;20513;-75
2022/03/16 05:15:29;;;;;;;49.85;23.40;;;;;;;7.09;85.09;97002.88;5104627;27;20043;-75
2022/03/16 05:17:55;;;;;;;45.13;22.67;;;;;;;7.14;85.18;97005.53;5109056;28;20498;-75
2022/03/16 05:20:21;;;;;;;42.20;21.05;;;;;;;7.13;84.93;97012.06;5109804;28;20156;-75
2022/03/16 05:22:49;;;;;;;46.30;22.48;;;;;;;7.03;84.55;97016.44;5110529;28;20058;-75
2022/03/16 05:25:20;;;;;;;45.60;21.73;;;;;;;7.04;84.76;97022.66;5109230;28;20051;-75
2022/03/16 05:27:46;;;;;;;45.75;22.55;;;;;;;7.06;84.77;97032.13;5109360;28;20082;-76
2022/03/16 05:30:14;;;;;;;42.10;20.75;;;;;;;7.06;84.93;97032.13;5108459;28;20418;-75
2022/03/16 05:32:43;;;;;;;47.17;22.63;;;;;;;7.09;84.95;97041.59;5109161;28;20048;-75
2022/03/16 05:35:12;;;;;;;44.58;21.95;;;;;;;7.12;84.95;97042.94;5110445;28;20056;-75
2022/03/16 05:37:38;;;;;;;49.72;22.65;;;;;;;7.10;85.11;97042.41;5109195;28;20047;-75
2022/03/16 05:40:07;;;;;;;43.97;21.85;;;;;;;7.07;84.62;97055.41;5110814;28;20056;-74
2022/03/16 05:42:33;;;;;;;42.03;21.92;;;;;;;7.07;84.73;97055.41;5110073;28;20051;-76
2022/03/16 05:45:02;;;;;;;47.40;23.00;;;;;;;6.98;84.32;97062.50;5109122;28;20047;-74
2022/03/16 05:47:28;;;;;;;47.25;22.73;;;;;;;6.96;84.22;97059.25;5109014;28;20047;-75
2022/03/16 05:49:57;;;;;;;45.60;22.60;;;;;;;7.01;84.65;97067.38;5109262;28;20047;-75
2022/03/16 05:52:24;;;;;;;47.42;22.90;;;;;;;7.03;84.44;97076.00;5109307;28;20051;-76
2022/03/16 05:54:52;;;;;;;46.10;23.52;;;;;;;7.09;84.54;97084.13;5111333;28;20050;-76
2022/03/16 05:57:19;;;;;;;49.60;22.98;;;;;;;7.11;84.20;97076.53;5111443;28;20051;-75
2022/03/16 05:59:46;;;;;;;47.83;24.00;;;;;;;7.14;84.39;97070.56;5111244;28;20051;-76
2022/03/16 06:02:13;;;;;;;50.58;23.85;;;;;;;7.16;84.22;97073.81;5111983;28;20052;-75
2022/03/16 06:04:41;;;;;;;45.33;23.45;;;;;;;7.11;83.72;97087.38;5109949;28;20047;-75
2022/03/16 06:07:09;;;;;;;47.03;23.65;;;;;;;7.12;83.77;97078.97;5108936;28;20040;-75
2022/03/16 06:09:36;;;;;;;44.63;24.20;;;;;;;7.13;84.13;97086.00;5108727;28;20051;-75
2022/03/16 06:12:03;;;;;;;46.92;22.95;;;;;;;7.16;83.95;97087.34;5107981;28;20429;-75
2022/03/16 06:14:30;;;;;;;51.58;24.02;;;;;;;7.16;83.99;97090.88;5107272;28;20494;-75
2022/03/16 06:16:57;;;;;;;50.65;24.38;;;;;;;7.16;84.20;97090.06;5107367;28;20050;-75
2022/03/16 06:19:24;;;;;;;47.58;22.88;;;;;;;7.14;83.88;97097.63;5107603;28;20050;-75
2022/03/16 06:21:51;;;;;;;47.05;23.00;;;;;;;7.18;83.63;97101.41;5106945;28;20054;-75
2022/03/16 06:24:19;;;;;;;47.85;23.73;;;;;;;7.20;83.58;97096.53;5107713;28;20054;-74
2022/03/16 06:26:45;;;;;;;48.30;23.40;;;;;;;7.09;82.76;97101.16;5106839;28;20051;-75
2022/03/16 06:29:12;;;;;;;49.97;24.33;;;;;;;7.12;82.80;97107.94;5107062;28;20051;-74
2022/03/16 06:31:38;;;;;;;49.03;22.85;;;;;;;7.14;82.89;97105.75;5108997;28;20576;-75
2022/03/16 06:34:05;;;;;;;50.47;23.17;;;;;;;7.19;83.01;97109.25;5108432;28;20422;-75
2022/03/16 06:36:31;;;;;;;47.60;23.45;;;;;;;7.23;83.11;97104.09;5108405;28;20043;-75
2022/03/16 06:38:58;;;;;;;49.03;23.45;;;;;;;7.24;83.21;97111.13;5108464;28;20039;-75
2022/03/16 06:41:26;;;;;;;47.90;23.00;;;;;;;7.28;83.31;97121.13;5108378;28;20055;-75
2022/03/16 06:43:52;;;;;;;48.65;23.05;;;;;;;7.33;83.13;97112.19;5107936;28;20051;-76
2022/03/16 06:46:19;;;;;;;47.33;23.02;;;;;;;7.37;82.95;97115.16;5108235;28;20134;-75
2022/03/16 06:48:45;;;;;;;48.15;23.48;;;;;;;7.37;82.80;97118.66;5107866;28;20052;-75
2022/03/16 06:51:12;;;;;;;45.90;22.88;;;;;;;7.40;83.21;97123.50;5112599;27;20051;-75
2022/03/16 06:53:39;;;;;;;46.75;22.85;;;;;;;7.39;82.65;97126.50;5116953;27;20055;-76
2022/03/16 06:56:05;;;;;;;45.40;22.63;;;;;;;7.44;82.98;97129.19;5128220;27;20046;-75
2022/03/16 06:58:40;;;;;;;37.67;20.67;;;;;;;7.43;82.37;97133.81;5129980;27;20545;-75
2022/03/16 07:01:07;;;;;;;42.05;21.73;;;;;;;7.46;81.18;97125.09;5112768;27;20051;-76
2022/03/16 07:03:33;;;;;;;43.08;21.80;;;;;;;7.47;81.45;97136.78;5111062;28;20051;-75
2022/03/16 07:06:00;;;;;;;42.60;21.83;;;;;;;7.44;81.84;97129.19;5109851;28;20070;-74
2022/03/16 07:08:27;;;;;;;37.35;19.67;;;;;;;7.50;81.44;97133.50;5110091;28;20825;-74
2022/03/16 07:10:53;;;;;;;39.80;20.48;;;;;;;7.48;81.27;97139.22;5110216;28;20059;-76
2022/03/16 07:13:20;;;;;;;32.83;19.00;;;;;;;7.48;80.69;97143.81;5109206;28;20044;-75
2022/03/16 07:15:48;;;;;;;37.35;19.90;;;;;;;7.48;80.88;97144.63;5125459;27;20047;-76
2022/03/16 07:18:15;;;;;;;38.65;20.38;;;;;;;7.46;80.59;97146.78;5128521;27;20047;-74
2022/03/16 07:20:41;;;;;;;35.10;19.00;;;;;;;7.39;79.82;97159.03;5128197;27;20062;-76
2022/03/16 07:23:10;;;;;;;32.00;18.02;;;;;;;7.28;80.08;97155.56;5129419;27;20043;-74
2022/03/16 07:25:38;;;;;;;25.60;14.07;;;;;;;7.19;77.61;97149.06;5129549;27;20070;-75
2022/03/16 07:28:05;;;;;;;29.65;15.65;;;;;;;7.14;78.88;97166.16;5128326;27;20192;-77
2022/03/16 07:30:33;;;;;;;22.90;14.55;;;;;;;7.17;79.42;97168.31;5117510;27;20043;-76
2022/03/16 07:33:01;;;;;;;29.88;17.45;;;;;;;7.23;79.76;97163.69;5108644;28;20709;-75
2022/03/16 07:35:27;;;;;;;25.33;14.93;;;;;;;7.31;79.34;97163.13;5108914;28;20541;-76
2022/03/16 07:37:55;;;;;;;25.98;15.60;;;;;;;7.34;78.66;97162.56;5108134;28;20050;-76
2022/03/16 07:40:22;;;;;;;28.05;15.05;;;;;;;7.42;78.78;97158.47;5108168;28;20054;-75
2022/03/16 07:42:50;;;;;;;26.45;15.30;;;;;;;7.45;79.10;97164.13;5112812;28;20070;-76
2022/03/16 07:45:18;;;;;;;34.35;22.63;;;;;;;7.49;78.85;97165.22;5111408;28;20062;-75
2022/03/16 07:47:45;;;;;;;27.58;17.02;;;;;;;7.50;78.28;97166.81;5111671;28;20556;-75
2022/03/16 07:50:13;;;;;;;29.05;15.30;;;;;;;7.54;78.18;97170.59;5111360;28;20681;-77
2022/03/16 07:52:42;;;;;;;32.67;18.75;;;;;;;7.51;78.27;97179.28;5095616;28;20048;-75
2022/03/16 07:55:09;;;;;;;32.70;16.83;;;;;;;7.55;78.02;97174.13;5090825;28;20159;-75
2022/03/16 07:57:36;;;;;;;26.90;14.75;;;;;;;7.59;77.17;97181.44;5091076;28;20035;-76
2022/03/16 08:00:04;;;;;;;33.00;16.88;;;;;;;7.63;76.96;97176.28;5091115;28;20051;-75
2022/03/16 08:02:30;;;;;;;30.20;15.73;;;;;;;7.66;77.41;97167.56;5092320;28;20667;-75
2022/03/16 08:04:58;;;;;;;27.63;14.32;;;;;;;7.75;77.53;97168.59;5091102;28;20587;-74
2022/03/16 08:07:28;;;;;;;28.27;15.27;;;;;;;7.79;77.21;97174.28;5090692;28;20054;-75
2022/03/16 08:09:54;;;;;;;27.63;15.60;;;;;;;7.81;76.85;97169.38;5090929;28;20056;-75
2022/03/16 08:12:20;;;;;;;32.58;16.80;;;;;;;7.83;75.97;97165.31;5090892;28;20517;-75
2022/03/16 08:14:47;;;;;;;32.03;16.05;;;;;;;7.95;77.32;97167.69;5090915;28;20048;-75
2022/03/16 08:17:13;;;;;;;33.67;17.15;;;;;;;7.94;76.08;97165.25;5089346;28;20051;-75
2022/03/16 08:19:40;;;;;;;30.90;15.18;;;;;;;8.01;76.25;97174.69;5091757;28;20088;-76
2022/03/16 08:22:06;;;;;;;26.33;14.95;;;;;;;8.08;77.07;97177.88;5091377;28;20048;-74
2022/03/16 08:24:35;;;;;;;29.38;15.77;;;;;;;8.00;75.64;97185.81;5092113;28;20044;-75
2022/03/16 08:27:01;;;;;;;31.17;16.42;;;;;;;8.04;77.24;97176.84;5091300;28;20070;-74
2022/03/16 08:29:28;;;;;;;28.65;15.45;;;;;;;8.01;75.73;97182.81;5092884;28;20044;-76
2022/03/16 08:31:57;;;;;;;23.90;14.32;;;;;;;8.02;74.65;97183.63;5093134;28;20086;-76
2022/03/16 08:34:24;;;;;;;32.38;14.93;;;;;;;8.07;74.68;97187.13;5093257;28;20048;-75
2022/03/16 08:36:51;;;;;;;28.45;15.50;;;;;;;8.15;74.70;97176.78;5092153;28;20059;-75
2022/03/16 08:39:17;;;;;;;22.75;13.93;;;;;;;8.26;74.37;97178.31;5091173;28;20063;-76
2022/03/16 08:41:45;;;;;;;25.08;14.50;;;;;;;8.32;73.67;97182.63;5091476;28;20044;-74
2022/03/16 08:44:12;;;;;;;30.75;15.88;;;;;;;8.42;72.93;97188.00;5091800;28;20055;-77
2022/03/16 08:46:40;;;;;;;26.85;15.05;;;;;;;8.58;73.08;97186.78;5094008;28;20035;-76
2022/03/16 08:49:07;;;;;;;24.05;14.57;;;;;;;8.73;72.41;97187.75;5096021;28;20501;-76
2022/03/16 08:51:33;;;;;;;26.27;14.75;;;;;;;8.94;72.90;97189.16;5098797;28;20051;-76
2022/03/16 08:54:00;;;;;;;32.05;17.25;;;;;;;9.06;71.60;97186.84;5099653;28;20059;-76
2022/03/16 08:56:26;;;;;;;33.65;16.17;;;;;;;9.26;70.34;97185.03;5098450;28;20067;-76
2022/03/16 08:58:54;;;;;;;30.02;14.10;;;;;;;9.39;69.79;97190.56;5097472;28;20055;-77
2022/03/16 09:01:21;;;;;;;33.92;16.10;;;;;;;9.54;69.81;97192.28;5096733;28;20563;-76
2022/03/16 09:03:47;;;;;;;22.08;13.85;;;;;;;9.59;68.81;97189.50;5097949;28;20055;-76
2022/03/16 09:06:14;;;;;;;26.83;15.27;;;;;;;9.68;68.29;97198.66;5092784;28;20052;-76
2022/03/16 09:08:40;;;;;;;24.20;13.55;;;;;;;9.72;67.71;97200.81;5098255;28;20048;-77
2022/03/16 09:11:07;;;;;;;22.52;13.68;;;;;;;9.76;67.36;97190.94;5095501;28;20048;-76
2022/03/16 09:13:34;;;;;;;22.38;13.48;;;;;;;9.85;66.69;97186.47;5096903;28;20075;-75
2022/03/16 09:16:02;;;;;;;23.73;14.63;;;;;;;9.98;68.07;97193.13;5094740;28;20567;-77
2022/03/16 09:18:29;;;;;;;31.88;15.25;;;;;;;10.14;68.07;97187.16;5096518;28;20043;-76
2022/03/16 09:21:01;;;;;;;24.70;14.05;;;;;;;10.29;68.39;97191.59;5095811;28;20056;-78
2022/03/16 09:23:31;;;;;;;24.65;15.65;;;;;;;10.34;65.53;97188.78;5095142;28;20476;-78
2022/03/16 09:25:58;;;;;;;27.98;15.13;;;;;;;10.59;65.01;97184.84;5094689;28;20051;-77
2022/03/16 09:28:25;;;;;;;28.13;15.57;;;;;;;10.71;63.95;97198.81;5092730;28;20135;-77
2022/03/16 09:30:52;;;;;;;29.77;14.60;;;;;;;10.87;63.70;97190.38;5094765;28;20063;-77
2022/03/16 09:33:23;;;;;;;27.33;14.63;;;;;;;10.98;63.36;97187.16;5093311;28;20044;-77
2022/03/16 09:35:52;;;;;;;27.75;15.52;;;;;;;11.05;62.92;97189.50;5095035;28;20060;-76
2022/03/16 09:38:21;;;;;;;28.70;15.05;;;;;;;11.00;61.66;97195.03;5093122;28;20572;-77
2022/03/16 09:40:53;;;;;;;29.05;16.33;;;;;;;10.86;62.21;97188.78;5095286;28;20841;-78
2022/03/16 09:43:23;;;;;;;28.85;15.82;;;;;;;10.78;62.33;97186.72;5092940;28;20585;-76
2022/03/16 09:45:55;;;;;;;28.05;16.17;;;;;;;10.82;62.86;97183.09;5092331;28;20052;-77
2022/03/16 09:48:24;;;;;;;26.95;14.40;;;;;;;10.95;64.45;97181.50;5091885;28;20051;-77
2022/03/16 09:50:51;;;;;;;26.23;15.30;;;;;;;10.90;61.91;97184.31;5094262;28;20052;-77
2022/03/16 09:53:20;;;;;;;28.08;15.85;;;;;;;10.80;62.92;97181.78;5113423;28;20047;-76
2022/03/16 09:55:47;;;;;;;22.85;15.10;;;;;;;10.72;63.59;97172.38;5111665;28;20056;-77
2022/03/16 09:58:19;;;;;;;28.85;15.60;;;;;;;10.75;63.67;97177.22;5112513;28;20506;-76
2022/03/16 10:00:46;;;;;;;25.75;16.23;;;;;;;11.01;62.45;97177.56;5111550;28;20460;-75
2022/03/16 10:03:13;;;;;;;25.73;16.88;;;;;;;11.03;62.64;97175.38;5111246;28;20060;-74
2022/03/16 10:05:41;;;;;;;23.80;15.32;;;;;;;11.16;61.97;97171.03;5111193;28;20039;-76
2022/03/16 10:08:10;;;;;;;29.42;16.50;;;;;;;11.31;61.54;97169.94;5111986;28;20051;-76
2022/03/16 10:13:22;;;;;;;24.92;16.40;;;;;;;11.80;62.10;97173.84;5111163;28;20640;-77
2022/03/16 10:15:49;;;;;;;33.88;16.83;;;;;;;12.01;62.83;97181.34;5112131;28;20237;-76
2022/03/16 10:18:17;;;;;;;27.83;15.48;;;;;;;12.01;59.29;97175.06;5114750;28;20105;-80
2022/03/16 10:20:45;;;;;;;22.98;15.30;;;;;;;12.11;58.61;97180.31;5118160;28;20108;-80
2022/03/16 10:23:14;;;;;;;22.88;15.15;;;;;;;12.22;61.12;97176.22;5116496;28;20051;-79
2022/03/16 10:25:42;;;;;;;24.05;15.77;;;;;;;12.21;58.48;97169.13;5112359;28;20044;-79
2022/03/16 10:28:11;;;;;;;20.23;14.93;;;;;;;12.21;59.65;97171.84;5111452;28;20047;-76
2022/03/16 10:30:52;;;;;;;26.02;16.75;;;;;;;12.16;58.64;97168.44;5111342;28;20074;-76
2022/03/16 10:33:20;;;;;;;24.30;16.67;;;;;;;12.22;58.03;97167.22;5113927;28;20107;-77
2022/03/16 10:36:03;;;;;;;25.42;16.33;;;;;;;12.10;58.63;97156.81;5108647;28;20047;-76
2022/03/16 10:38:30;;;;;;;28.60;17.30;;;;;;;12.05;59.23;97159.66;5107929;28;20064;-77
2022/03/16 10:41:10;;;;;;;27.58;17.02;;;;;;;12.01;59.89;97164.94;5108952;28;20131;-79
2022/03/16 10:46:38;;;;;;;37.80;18.95;;;;;;;11.90;59.21;97157.28;5088426;28;20075;-78
2022/03/16 10:49:05;;;;;;;;;;;;;;;12.02;60.70;97160.31;5088434;28;20075;-76
2022/03/16 10:51:34;;;;;;;24.38;16.75;;;;;;;12.11;60.52;97161.19;5089399;28;19924;-78
2022/03/16 10:54:02;;;;;;;24.92;16.75;;;;;;;12.23;59.63;97158.72;5088696;28;20043;-77
2022/03/16 10:56:31;;;;;;;26.23;19.48;;;;;;;12.33;58.85;97154.13;5090383;28;20071;-77
2022/03/16 10:59:01;;;;;;;28.27;17.83;;;;;;;12.45;58.26;97148.91;5095904;28;20105;-78
2022/03/16 11:01:28;;;;;;;25.15;17.25;;;;;;;12.69;58.17;97152.16;5097422;28;20048;-75
2022/03/16 11:03:58;;;;;;;27.13;16.38;;;;;;;12.75;56.87;97145.41;5095490;28;20098;-76
2022/03/16 11:06:25;;;;;;;23.10;17.02;;;;;;;12.78;56.95;97139.31;5092598;28;20051;-76
2022/03/16 11:08:55;;;;;;;24.42;15.68;;;;;;;12.90;56.78;97141.50;5095960;28;20048;-76
2022/03/16 11:14:08;;;;;;;22.48;16.25;;;;;;;13.32;55.90;97137.38;5112836;28;20055;-76
2022/03/16 11:16:35;;;;;;;23.65;16.63;;;;;;;13.47;56.30;97141.59;5111880;28;20044;-76
2022/03/16 11:19:04;;;;;;;21.23;16.20;;;;;;;13.55;53.44;97135.34;5111797;28;20051;-76
2022/03/16 11:21:44;;;;;;;22.05;15.88;;;;;;;13.61;53.58;97133.25;5113341;28;20055;-77
2022/03/16 11:24:16;;;;;;;24.23;16.65;;;;;;;13.81;54.36;97126.38;5113394;28;20057;-76
2022/03/16 11:27:12;;;;;;;22.48;15.88;;;;;;;14.02;53.37;97126.56;5113227;28;20048;-76
2022/03/16 11:29:47;;;;;;;22.55;16.10;;;;;;;14.29;52.60;97109.78;5108213;28;20537;-78
2022/03/16 11:32:21;;;;;;;27.00;17.52;;;;;;;14.30;52.41;97108.69;5108024;28;20045;-79